sensor_id;sensor_type;location;lat;lon;timestamp;P1;durP1;ratioP1;P2;durP2;ratioP2
25073;SDS011;13066;52.042;5.648;2023-05-07T00:01:37;8.35;;;5.82;;
25073;SDS011;13066;52.042;5.648;2023-05-07T00:04:05;8.23;;;5.05;;
25073;SDS011;13066;52.042;5.648;2023-05-07T00:06:34;5.93;;;4.88;;
25073;SDS011;13066;52.042;5.648;2023-05-07T00:09:02;8.38;;;5.38;;
25073;SDS011;13066;52.042;5.648;2023-05-07T00:11:31;8.13;;;5.05;;
25073;SDS011;13066;52.042;5.648;2023-05-07T00:14:03;7.78;;;5.00;;
25073;SDS011;13066;52.042;5.648;2023-05-07T00:16:31;7.78;;;5.20;;
25073;SDS011;13066;52.042;5.648;2023-05-07T00:19:00;7.30;;;5.05;;
25073;SDS011;13066;52.042;5.648;2023-05-07T00:21:28;12.23;;;5.40;;
25073;SDS011;13066;52.042;5.648;2023-05-07T00:23:57;6.63;;;5.10;;
25073;SDS011;13066;52.042;5.648;2023-05-07T00:26:25;5.47;;;4.55;;
25073;SDS011;13066;52.042;5.648;2023-05-07T00:28:53;10.43;;;4.63;;
25073;SDS011;13066;52.042;5.648;2023-05-07T00:31:23;7.63;;;4.88;;
25073;SDS011;13066;52.042;5.648;2023-05-07T00:33:51;7.03;;;4.85;;
25073;SDS011;13066;52.042;5.648;2023-05-07T00:36:19;5.75;;;4.57;;
25073;SDS011;13066;52.042;5.648;2023-05-07T00:38:47;8.77;;;4.88;;
25073;SDS011;13066;52.042;5.648;2023-05-07T00:41:15;6.72;;;5.13;;
25073;SDS011;13066;52.042;5.648;2023-05-07T00:43:43;11.60;;;6.18;;
25073;SDS011;13066;52.042;5.648;2023-05-07T00:46:11;7.10;;;5.20;;
25073;SDS011;13066;52.042;5.648;2023-05-07T00:48:42;8.18;;;5.50;;
25073;SDS011;13066;52.042;5.648;2023-05-07T00:51:10;8.60;;;5.47;;
25073;SDS011;13066;52.042;5.648;2023-05-07T00:53:39;9.65;;;5.32;;
25073;SDS011;13066;52.042;5.648;2023-05-07T00:56:07;7.47;;;5.28;;
25073;SDS011;13066;52.042;5.648;2023-05-07T00:58:35;8.30;;;5.18;;
25073;SDS011;13066;52.042;5.648;2023-05-07T01:01:03;9.55;;;4.90;;
25073;SDS011;13066;52.042;5.648;2023-05-07T01:03:31;10.13;;;5.75;;
25073;SDS011;13066;52.042;5.648;2023-05-07T01:06:01;9.25;;;5.78;;
25073;SDS011;13066;52.042;5.648;2023-05-07T01:08:30;8.63;;;5.80;;
25073;SDS011;13066;52.042;5.648;2023-05-07T01:11:01;10.60;;;6.70;;
25073;SDS011;13066;52.042;5.648;2023-05-07T01:13:30;10.48;;;6.32;;
25073;SDS011;13066;52.042;5.648;2023-05-07T01:15:58;10.40;;;6.50;;
25073;SDS011;13066;52.042;5.648;2023-05-07T01:18:26;12.48;;;7.18;;
25073;SDS011;13066;52.042;5.648;2023-05-07T01:20:56;9.70;;;6.82;;
25073;SDS011;13066;52.042;5.648;2023-05-07T01:23:29;12.30;;;7.63;;
25073;SDS011;13066;52.042;5.648;2023-05-07T01:25:58;11.60;;;7.13;;
25073;SDS011;13066;52.042;5.648;2023-05-07T01:28:27;12.35;;;8.00;;
25073;SDS011;13066;52.042;5.648;2023-05-07T01:31:00;11.35;;;7.60;;
25073;SDS011;13066;52.042;5.648;2023-05-07T01:33:30;10.95;;;7.47;;
25073;SDS011;13066;52.042;5.648;2023-05-07T01:35:59;14.00;;;7.57;;
25073;SDS011;13066;52.042;5.648;2023-05-07T01:38:31;9.57;;;6.95;;
25073;SDS011;13066;52.042;5.648;2023-05-07T01:40:59;9.95;;;7.25;;
25073;SDS011;13066;52.042;5.648;2023-05-07T01:43:28;11.65;;;7.80;;
25073;SDS011;13066;52.042;5.648;2023-05-07T01:45:56;12.25;;;7.47;;
25073;SDS011;13066;52.042;5.648;2023-05-07T01:48:25;10.43;;;7.38;;
25073;SDS011;13066;52.042;5.648;2023-05-07T01:50:53;8.40;;;6.80;;
25073;SDS011;13066;52.042;5.648;2023-05-07T01:53:21;10.80;;;7.68;;
25073;SDS011;13066;52.042;5.648;2023-05-07T01:55:51;13.15;;;8.10;;
25073;SDS011;13066;52.042;5.648;2023-05-07T01:58:20;12.85;;;8.20;;
25073;SDS011;13066;52.042;5.648;2023-05-07T02:00:48;11.70;;;7.57;;
25073;SDS011;13066;52.042;5.648;2023-05-07T02:03:17;10.68;;;7.50;;
25073;SDS011;13066;52.042;5.648;2023-05-07T02:05:56;15.13;;;7.72;;
25073;SDS011;13066;52.042;5.648;2023-05-07T02:08:33;12.40;;;7.95;;
25073;SDS011;13066;52.042;5.648;2023-05-07T02:11:03;10.35;;;7.25;;
25073;SDS011;13066;52.042;5.648;2023-05-07T02:13:32;11.45;;;8.70;;
25073;SDS011;13066;52.042;5.648;2023-05-07T02:16:01;14.73;;;7.90;;
25073;SDS011;13066;52.042;5.648;2023-05-07T02:18:29;11.18;;;8.23;;
25073;SDS011;13066;52.042;5.648;2023-05-07T02:20:58;9.98;;;7.40;;
25073;SDS011;13066;52.042;5.648;2023-05-07T02:23:28;12.40;;;7.57;;
25073;SDS011;13066;52.042;5.648;2023-05-07T02:25:56;12.98;;;8.10;;
25073;SDS011;13066;52.042;5.648;2023-05-07T02:28:26;11.57;;;7.82;;
25073;SDS011;13066;52.042;5.648;2023-05-07T02:33:31;10.00;;;7.38;;
25073;SDS011;13066;52.042;5.648;2023-05-07T02:36:06;9.75;;;7.07;;
25073;SDS011;13066;52.042;5.648;2023-05-07T02:38:38;12.40;;;8.02;;
25073;SDS011;13066;52.042;5.648;2023-05-07T02:41:06;8.52;;;7.03;;
25073;SDS011;13066;52.042;5.648;2023-05-07T02:43:36;10.88;;;7.63;;
25073;SDS011;13066;52.042;5.648;2023-05-07T02:46:04;10.45;;;7.95;;
25073;SDS011;13066;52.042;5.648;2023-05-07T02:48:37;12.20;;;7.65;;
25073;SDS011;13066;52.042;5.648;2023-05-07T02:51:05;8.75;;;6.88;;
25073;SDS011;13066;52.042;5.648;2023-05-07T02:53:35;9.57;;;7.65;;
25073;SDS011;13066;52.042;5.648;2023-05-07T02:56:03;11.30;;;7.93;;
25073;SDS011;13066;52.042;5.648;2023-05-07T02:58:32;12.25;;;8.52;;
25073;SDS011;13066;52.042;5.648;2023-05-07T03:01:03;10.50;;;7.88;;
25073;SDS011;13066;52.042;5.648;2023-05-07T03:03:45;11.00;;;8.00;;
25073;SDS011;13066;52.042;5.648;2023-05-07T03:06:13;14.35;;;8.50;;
25073;SDS011;13066;52.042;5.648;2023-05-07T03:08:41;10.88;;;8.00;;
25073;SDS011;13066;52.042;5.648;2023-05-07T03:11:10;12.63;;;8.38;;
25073;SDS011;13066;52.042;5.648;2023-05-07T03:13:38;13.10;;;8.38;;
25073;SDS011;13066;52.042;5.648;2023-05-07T03:16:07;15.18;;;8.38;;
25073;SDS011;13066;52.042;5.648;2023-05-07T03:18:35;11.27;;;8.68;;
25073;SDS011;13066;52.042;5.648;2023-05-07T03:21:04;12.10;;;8.65;;
25073;SDS011;13066;52.042;5.648;2023-05-07T03:23:32;12.35;;;8.75;;
25073;SDS011;13066;52.042;5.648;2023-05-07T03:26:00;12.80;;;9.10;;
25073;SDS011;13066;52.042;5.648;2023-05-07T03:28:28;13.20;;;9.18;;
25073;SDS011;13066;52.042;5.648;2023-05-07T03:31:00;12.93;;;8.30;;
25073;SDS011;13066;52.042;5.648;2023-05-07T03:33:32;12.38;;;9.18;;
25073;SDS011;13066;52.042;5.648;2023-05-07T03:36:00;13.63;;;9.27;;
25073;SDS011;13066;52.042;5.648;2023-05-07T03:38:29;15.05;;;9.80;;
25073;SDS011;13066;52.042;5.648;2023-05-07T03:40:57;16.92;;;9.70;;
25073;SDS011;13066;52.042;5.648;2023-05-07T03:43:25;13.02;;;9.38;;
25073;SDS011;13066;52.042;5.648;2023-05-07T03:46:01;12.18;;;9.15;;
25073;SDS011;13066;52.042;5.648;2023-05-07T03:48:30;14.57;;;10.32;;
25073;SDS011;13066;52.042;5.648;2023-05-07T03:50:59;13.88;;;9.95;;
25073;SDS011;13066;52.042;5.648;2023-05-07T03:53:31;15.38;;;10.07;;
25073;SDS011;13066;52.042;5.648;2023-05-07T03:55:59;14.68;;;10.57;;
25073;SDS011;13066;52.042;5.648;2023-05-07T03:58:30;14.60;;;10.98;;
25073;SDS011;13066;52.042;5.648;2023-05-07T04:01:04;16.38;;;10.70;;
25073;SDS011;13066;52.042;5.648;2023-05-07T04:03:33;15.65;;;11.18;;
25073;SDS011;13066;52.042;5.648;2023-05-07T04:06:02;13.85;;;10.15;;
25073;SDS011;13066;52.042;5.648;2023-05-07T04:08:33;17.20;;;10.93;;
25073;SDS011;13066;52.042;5.648;2023-05-07T04:11:02;17.70;;;11.55;;
25073;SDS011;13066;52.042;5.648;2023-05-07T04:13:32;15.68;;;11.00;;
25073;SDS011;13066;52.042;5.648;2023-05-07T04:16:02;12.95;;;10.75;;
25073;SDS011;13066;52.042;5.648;2023-05-07T04:18:35;15.15;;;10.82;;
25073;SDS011;13066;52.042;5.648;2023-05-07T04:21:04;15.70;;;10.50;;
25073;SDS011;13066;52.042;5.648;2023-05-07T04:23:36;14.48;;;10.85;;
25073;SDS011;13066;52.042;5.648;2023-05-07T04:26:09;16.60;;;10.93;;
25073;SDS011;13066;52.042;5.648;2023-05-07T04:28:39;13.50;;;10.90;;
25073;SDS011;13066;52.042;5.648;2023-05-07T04:31:08;14.05;;;10.25;;
25073;SDS011;13066;52.042;5.648;2023-05-07T04:33:38;13.90;;;10.52;;
25073;SDS011;13066;52.042;5.648;2023-05-07T04:36:10;17.05;;;10.68;;
25073;SDS011;13066;52.042;5.648;2023-05-07T04:38:56;17.73;;;10.88;;
25073;SDS011;13066;52.042;5.648;2023-05-07T04:41:25;12.68;;;10.43;;
25073;SDS011;13066;52.042;5.648;2023-05-07T04:43:54;12.73;;;10.73;;
25073;SDS011;13066;52.042;5.648;2023-05-07T04:46:23;13.50;;;10.02;;
25073;SDS011;13066;52.042;5.648;2023-05-07T04:48:55;13.95;;;9.68;;
25073;SDS011;13066;52.042;5.648;2023-05-07T04:51:23;12.88;;;9.93;;
25073;SDS011;13066;52.042;5.648;2023-05-07T04:53:51;12.75;;;9.82;;
25073;SDS011;13066;52.042;5.648;2023-05-07T04:56:19;15.82;;;10.93;;
25073;SDS011;13066;52.042;5.648;2023-05-07T04:58:47;15.10;;;10.45;;
25073;SDS011;13066;52.042;5.648;2023-05-07T05:01:18;15.25;;;10.60;;
25073;SDS011;13066;52.042;5.648;2023-05-07T05:03:47;13.80;;;10.00;;
25073;SDS011;13066;52.042;5.648;2023-05-07T05:06:17;16.67;;;11.52;;
25073;SDS011;13066;52.042;5.648;2023-05-07T05:08:44;16.30;;;10.90;;
25073;SDS011;13066;52.042;5.648;2023-05-07T05:11:13;14.48;;;11.25;;
25073;SDS011;13066;52.042;5.648;2023-05-07T05:13:41;16.48;;;11.02;;
25073;SDS011;13066;52.042;5.648;2023-05-07T05:16:15;15.30;;;11.95;;
25073;SDS011;13066;52.042;5.648;2023-05-07T05:18:43;17.60;;;11.80;;
25073;SDS011;13066;52.042;5.648;2023-05-07T05:21:14;18.58;;;12.68;;
25073;SDS011;13066;52.042;5.648;2023-05-07T05:23:46;14.30;;;12.20;;
25073;SDS011;13066;52.042;5.648;2023-05-07T05:26:18;18.20;;;12.80;;
25073;SDS011;13066;52.042;5.648;2023-05-07T05:28:48;13.80;;;11.63;;
25073;SDS011;13066;52.042;5.648;2023-05-07T05:31:19;15.55;;;12.27;;
25073;SDS011;13066;52.042;5.648;2023-05-07T05:33:49;17.98;;;13.32;;
25073;SDS011;13066;52.042;5.648;2023-05-07T05:36:17;17.60;;;12.80;;
25073;SDS011;13066;52.042;5.648;2023-05-07T05:38:48;18.95;;;12.73;;
25073;SDS011;13066;52.042;5.648;2023-05-07T05:41:17;16.90;;;12.38;;
25073;SDS011;13066;52.042;5.648;2023-05-07T05:43:45;16.95;;;12.60;;
25073;SDS011;13066;52.042;5.648;2023-05-07T05:46:14;17.27;;;12.73;;
25073;SDS011;13066;52.042;5.648;2023-05-07T05:48:42;14.90;;;12.85;;
25073;SDS011;13066;52.042;5.648;2023-05-07T05:51:11;16.70;;;12.95;;
25073;SDS011;13066;52.042;5.648;2023-05-07T05:53:39;16.52;;;12.15;;
25073;SDS011;13066;52.042;5.648;2023-05-07T05:56:08;17.75;;;13.15;;
25073;SDS011;13066;52.042;5.648;2023-05-07T05:58:39;18.65;;;13.02;;
25073;SDS011;13066;52.042;5.648;2023-05-07T06:01:08;15.57;;;12.45;;
25073;SDS011;13066;52.042;5.648;2023-05-07T06:03:36;14.40;;;12.45;;
25073;SDS011;13066;52.042;5.648;2023-05-07T06:06:10;14.23;;;12.73;;
25073;SDS011;13066;52.042;5.648;2023-05-07T06:08:40;22.27;;;13.80;;
25073;SDS011;13066;52.042;5.648;2023-05-07T06:11:12;14.98;;;12.18;;
25073;SDS011;13066;52.042;5.648;2023-05-07T06:13:43;16.35;;;13.10;;
25073;SDS011;13066;52.042;5.648;2023-05-07T06:16:11;18.00;;;12.60;;
25073;SDS011;13066;52.042;5.648;2023-05-07T06:21:41;13.75;;;12.25;;
25073;SDS011;13066;52.042;5.648;2023-05-07T06:24:09;15.88;;;13.15;;
25073;SDS011;13066;52.042;5.648;2023-05-07T06:26:39;16.50;;;13.93;;
25073;SDS011;13066;52.042;5.648;2023-05-07T06:29:08;17.42;;;12.90;;
25073;SDS011;13066;52.042;5.648;2023-05-07T06:31:38;14.95;;;12.95;;
25073;SDS011;13066;52.042;5.648;2023-05-07T06:34:07;14.23;;;12.40;;
25073;SDS011;13066;52.042;5.648;2023-05-07T06:36:37;15.30;;;12.95;;
25073;SDS011;13066;52.042;5.648;2023-05-07T06:39:14;19.38;;;13.52;;
25073;SDS011;13066;52.042;5.648;2023-05-07T06:41:43;16.67;;;12.65;;
25073;SDS011;13066;52.042;5.648;2023-05-07T06:44:21;17.85;;;12.25;;
25073;SDS011;13066;52.042;5.648;2023-05-07T06:47:07;17.27;;;12.77;;
25073;SDS011;13066;52.042;5.648;2023-05-07T06:49:37;17.25;;;12.80;;
25073;SDS011;13066;52.042;5.648;2023-05-07T06:52:05;21.63;;;14.25;;
25073;SDS011;13066;52.042;5.648;2023-05-07T06:54:34;15.30;;;13.18;;
25073;SDS011;13066;52.042;5.648;2023-05-07T06:57:03;18.95;;;13.73;;
25073;SDS011;13066;52.042;5.648;2023-05-07T06:59:31;21.23;;;14.00;;
25073;SDS011;13066;52.042;5.648;2023-05-07T07:01:59;15.68;;;12.68;;
25073;SDS011;13066;52.042;5.648;2023-05-07T07:04:28;16.98;;;14.18;;
25073;SDS011;13066;52.042;5.648;2023-05-07T07:07:04;19.20;;;14.00;;
25073;SDS011;13066;52.042;5.648;2023-05-07T07:09:32;21.45;;;15.63;;
25073;SDS011;13066;52.042;5.648;2023-05-07T07:12:03;18.90;;;14.30;;
25073;SDS011;13066;52.042;5.648;2023-05-07T07:14:33;21.58;;;14.68;;
25073;SDS011;13066;52.042;5.648;2023-05-07T07:17:01;19.38;;;14.25;;
25073;SDS011;13066;52.042;5.648;2023-05-07T07:19:29;18.52;;;14.70;;
25073;SDS011;13066;52.042;5.648;2023-05-07T07:21:57;17.80;;;14.18;;
25073;SDS011;13066;52.042;5.648;2023-05-07T07:24:26;18.35;;;14.68;;
25073;SDS011;13066;52.042;5.648;2023-05-07T07:26:58;18.67;;;15.23;;
25073;SDS011;13066;52.042;5.648;2023-05-07T07:29:27;20.65;;;15.63;;
25073;SDS011;13066;52.042;5.648;2023-05-07T07:31:55;19.92;;;15.00;;
25073;SDS011;13066;52.042;5.648;2023-05-07T07:34:24;19.08;;;15.18;;
25073;SDS011;13066;52.042;5.648;2023-05-07T07:36:52;20.00;;;15.07;;
25073;SDS011;13066;52.042;5.648;2023-05-07T07:39:20;19.83;;;15.30;;
25073;SDS011;13066;52.042;5.648;2023-05-07T07:41:51;20.50;;;16.60;;
25073;SDS011;13066;52.042;5.648;2023-05-07T07:44:20;19.75;;;15.68;;
25073;SDS011;13066;52.042;5.648;2023-05-07T07:46:54;20.70;;;15.80;;
25073;SDS011;13066;52.042;5.648;2023-05-07T07:49:24;21.83;;;17.30;;
25073;SDS011;13066;52.042;5.648;2023-05-07T07:51:53;17.65;;;15.75;;
25073;SDS011;13066;52.042;5.648;2023-05-07T07:54:23;18.25;;;16.27;;
25073;SDS011;13066;52.042;5.648;2023-05-07T07:56:51;17.05;;;15.25;;
25073;SDS011;13066;52.042;5.648;2023-05-07T07:59:20;21.17;;;15.85;;
25073;SDS011;13066;52.042;5.648;2023-05-07T08:01:49;19.05;;;16.08;;
25073;SDS011;13066;52.042;5.648;2023-05-07T08:04:24;18.15;;;16.00;;
25073;SDS011;13066;52.042;5.648;2023-05-07T08:06:54;19.85;;;15.85;;
25073;SDS011;13066;52.042;5.648;2023-05-07T08:09:22;21.33;;;17.38;;
25073;SDS011;13066;52.042;5.648;2023-05-07T08:11:53;20.88;;;16.55;;
25073;SDS011;13066;52.042;5.648;2023-05-07T08:14:21;24.55;;;17.42;;
25073;SDS011;13066;52.042;5.648;2023-05-07T08:16:49;25.35;;;18.63;;
25073;SDS011;13066;52.042;5.648;2023-05-07T08:19:17;22.15;;;17.10;;
25073;SDS011;13066;52.042;5.648;2023-05-07T08:21:47;22.13;;;18.48;;
25073;SDS011;13066;52.042;5.648;2023-05-07T08:24:16;21.92;;;17.27;;
25073;SDS011;13066;52.042;5.648;2023-05-07T08:26:46;23.33;;;17.45;;
25073;SDS011;13066;52.042;5.648;2023-05-07T08:29:13;21.70;;;17.80;;
25073;SDS011;13066;52.042;5.648;2023-05-07T08:31:42;18.80;;;16.90;;
25073;SDS011;13066;52.042;5.648;2023-05-07T08:34:10;22.48;;;19.00;;
25073;SDS011;13066;52.042;5.648;2023-05-07T08:36:41;26.38;;;19.77;;
25073;SDS011;13066;52.042;5.648;2023-05-07T08:39:14;26.73;;;19.98;;
25073;SDS011;13066;52.042;5.648;2023-05-07T08:41:45;21.80;;;18.63;;
25073;SDS011;13066;52.042;5.648;2023-05-07T08:44:14;24.45;;;20.15;;
25073;SDS011;13066;52.042;5.648;2023-05-07T08:46:44;28.30;;;19.50;;
25073;SDS011;13066;52.042;5.648;2023-05-07T08:49:16;23.38;;;19.08;;
25073;SDS011;13066;52.042;5.648;2023-05-07T08:51:44;22.02;;;19.13;;
25073;SDS011;13066;52.042;5.648;2023-05-07T08:54:16;23.35;;;18.42;;
25073;SDS011;13066;52.042;5.648;2023-05-07T08:56:44;26.15;;;19.67;;
25073;SDS011;13066;52.042;5.648;2023-05-07T08:59:12;23.92;;;18.77;;
25073;SDS011;13066;52.042;5.648;2023-05-07T09:01:42;23.67;;;19.02;;
25073;SDS011;13066;52.042;5.648;2023-05-07T09:04:11;23.30;;;19.75;;
25073;SDS011;13066;52.042;5.648;2023-05-07T09:06:40;25.25;;;19.42;;
25073;SDS011;13066;52.042;5.648;2023-05-07T09:09:12;24.23;;;19.45;;
25073;SDS011;13066;52.042;5.648;2023-05-07T09:11:43;24.35;;;20.75;;
25073;SDS011;13066;52.042;5.648;2023-05-07T09:14:13;25.95;;;20.00;;
25073;SDS011;13066;52.042;5.648;2023-05-07T09:16:43;25.00;;;20.08;;
25073;SDS011;13066;52.042;5.648;2023-05-07T09:19:12;26.83;;;20.63;;
25073;SDS011;13066;52.042;5.648;2023-05-07T09:21:44;24.13;;;20.73;;
25073;SDS011;13066;52.042;5.648;2023-05-07T09:24:14;24.73;;;18.98;;
25073;SDS011;13066;52.042;5.648;2023-05-07T09:26:44;24.90;;;20.02;;
25073;SDS011;13066;52.042;5.648;2023-05-07T09:29:15;25.00;;;18.90;;
25073;SDS011;13066;52.042;5.648;2023-05-07T09:31:43;25.60;;;16.92;;
25073;SDS011;13066;52.042;5.648;2023-05-07T09:34:14;20.23;;;16.75;;
25073;SDS011;13066;52.042;5.648;2023-05-07T09:36:44;21.23;;;16.63;;
25073;SDS011;13066;52.042;5.648;2023-05-07T09:39:13;24.30;;;17.00;;
25073;SDS011;13066;52.042;5.648;2023-05-07T09:41:45;25.33;;;15.77;;
25073;SDS011;13066;52.042;5.648;2023-05-07T09:44:24;19.92;;;15.05;;
25073;SDS011;13066;52.042;5.648;2023-05-07T09:46:53;18.23;;;13.93;;
25073;SDS011;13066;52.042;5.648;2023-05-07T09:49:29;21.55;;;11.77;;
25073;SDS011;13066;52.042;5.648;2023-05-07T09:52:03;17.88;;;12.27;;
25073;SDS011;13066;52.042;5.648;2023-05-07T09:54:35;17.63;;;11.88;;
25073;SDS011;13066;52.042;5.648;2023-05-07T09:57:06;20.88;;;13.23;;
25073;SDS011;13066;52.042;5.648;2023-05-07T09:59:35;16.45;;;12.10;;
25073;SDS011;13066;52.042;5.648;2023-05-07T10:02:09;15.63;;;11.07;;
25073;SDS011;13066;52.042;5.648;2023-05-07T10:04:44;13.88;;;10.82;;
25073;SDS011;13066;52.042;5.648;2023-05-07T10:07:17;16.55;;;11.27;;
25073;SDS011;13066;52.042;5.648;2023-05-07T10:09:46;16.65;;;9.10;;
25073;SDS011;13066;52.042;5.648;2023-05-07T10:12:24;15.35;;;9.50;;
25073;SDS011;13066;52.042;5.648;2023-05-07T10:14:53;17.75;;;9.23;;
25073;SDS011;13066;52.042;5.648;2023-05-07T10:17:22;12.15;;;9.23;;
25073;SDS011;13066;52.042;5.648;2023-05-07T10:19:51;13.50;;;9.50;;
25073;SDS011;13066;52.042;5.648;2023-05-07T10:22:21;14.63;;;9.38;;
25073;SDS011;13066;52.042;5.648;2023-05-07T10:24:50;11.65;;;8.90;;
25073;SDS011;13066;52.042;5.648;2023-05-07T10:27:20;11.48;;;8.35;;
25073;SDS011;13066;52.042;5.648;2023-05-07T10:30:00;14.82;;;8.57;;
25073;SDS011;13066;52.042;5.648;2023-05-07T10:32:39;13.68;;;8.43;;
25073;SDS011;13066;52.042;5.648;2023-05-07T10:35:15;12.05;;;8.13;;
25073;SDS011;13066;52.042;5.648;2023-05-07T10:37:46;9.83;;;6.80;;
25073;SDS011;13066;52.042;5.648;2023-05-07T10:40:18;10.60;;;6.03;;
25073;SDS011;13066;52.042;5.648;2023-05-07T10:42:55;13.57;;;6.35;;
25073;SDS011;13066;52.042;5.648;2023-05-07T10:45:28;11.20;;;6.20;;
25073;SDS011;13066;52.042;5.648;2023-05-07T10:48:11;8.10;;;5.32;;
25073;SDS011;13066;52.042;5.648;2023-05-07T10:51:20;8.70;;;5.68;;
25073;SDS011;13066;52.042;5.648;2023-05-07T10:54:18;10.95;;;5.93;;
25073;SDS011;13066;52.042;5.648;2023-05-07T11:00:40;8.32;;;5.30;;
25073;SDS011;13066;52.042;5.648;2023-05-07T11:03:24;10.27;;;5.30;;
25073;SDS011;13066;52.042;5.648;2023-05-07T11:06:10;9.43;;;5.90;;
25073;SDS011;13066;52.042;5.648;2023-05-07T11:08:53;8.85;;;5.95;;
25073;SDS011;13066;52.042;5.648;2023-05-07T11:11:45;7.72;;;5.38;;
25073;SDS011;13066;52.042;5.648;2023-05-07T11:14:44;8.60;;;5.60;;
25073;SDS011;13066;52.042;5.648;2023-05-07T11:17:18;15.70;;;7.68;;
25073;SDS011;13066;52.042;5.648;2023-05-07T11:20:00;29.15;;;11.55;;
25073;SDS011;13066;52.042;5.648;2023-05-07T11:22:45;13.93;;;6.63;;
25073;SDS011;13066;52.042;5.648;2023-05-07T11:27:54;8.35;;;4.60;;
25073;SDS011;13066;52.042;5.648;2023-05-07T11:30:24;11.52;;;4.80;;
25073;SDS011;13066;52.042;5.648;2023-05-07T11:32:54;7.65;;;4.70;;
25073;SDS011;13066;52.042;5.648;2023-05-07T11:35:22;7.30;;;4.63;;
25073;SDS011;13066;52.042;5.648;2023-05-07T11:37:57;9.15;;;4.43;;
25073;SDS011;13066;52.042;5.648;2023-05-07T11:40:26;7.45;;;4.70;;
25073;SDS011;13066;52.042;5.648;2023-05-07T11:42:55;6.75;;;4.70;;
25073;SDS011;13066;52.042;5.648;2023-05-07T11:45:23;6.30;;;4.40;;
25073;SDS011;13066;52.042;5.648;2023-05-07T11:47:51;7.22;;;4.72;;
25073;SDS011;13066;52.042;5.648;2023-05-07T11:50:21;8.93;;;4.43;;
25073;SDS011;13066;52.042;5.648;2023-05-07T11:52:52;6.95;;;4.65;;
25073;SDS011;13066;52.042;5.648;2023-05-07T11:55:20;6.20;;;3.58;;
25073;SDS011;13066;52.042;5.648;2023-05-07T11:57:49;6.43;;;3.40;;
25073;SDS011;13066;52.042;5.648;2023-05-07T12:00:17;6.35;;;3.08;;
25073;SDS011;13066;52.042;5.648;2023-05-07T12:02:45;8.43;;;3.22;;
25073;SDS011;13066;52.042;5.648;2023-05-07T12:05:14;8.13;;;3.70;;
25073;SDS011;13066;52.042;5.648;2023-05-07T12:07:43;8.45;;;3.33;;
25073;SDS011;13066;52.042;5.648;2023-05-07T12:10:11;9.25;;;3.33;;
25073;SDS011;13066;52.042;5.648;2023-05-07T12:12:40;5.10;;;3.10;;
25073;SDS011;13066;52.042;5.648;2023-05-07T12:15:08;4.63;;;3.20;;
25073;SDS011;13066;52.042;5.648;2023-05-07T12:17:37;10.20;;;3.72;;
25073;SDS011;13066;52.042;5.648;2023-05-07T12:20:06;7.70;;;3.70;;
25073;SDS011;13066;52.042;5.648;2023-05-07T12:22:36;5.65;;;3.13;;
25073;SDS011;13066;52.042;5.648;2023-05-07T12:25:05;7.88;;;3.45;;
25073;SDS011;13066;52.042;5.648;2023-05-07T12:27:36;3.50;;;2.97;;
25073;SDS011;13066;52.042;5.648;2023-05-07T12:30:04;5.53;;;3.28;;
25073;SDS011;13066;52.042;5.648;2023-05-07T12:32:33;11.02;;;5.03;;
25073;SDS011;13066;52.042;5.648;2023-05-07T12:35:03;8.05;;;4.80;;
25073;SDS011;13066;52.042;5.648;2023-05-07T12:37:33;8.35;;;4.80;;
25073;SDS011;13066;52.042;5.648;2023-05-07T12:40:04;7.07;;;4.65;;
25073;SDS011;13066;52.042;5.648;2023-05-07T12:42:35;7.82;;;4.95;;
25073;SDS011;13066;52.042;5.648;2023-05-07T12:45:07;7.38;;;4.97;;
25073;SDS011;13066;52.042;5.648;2023-05-07T12:47:36;9.18;;;6.15;;
25073;SDS011;13066;52.042;5.648;2023-05-07T12:50:05;9.65;;;7.20;;
25073;SDS011;13066;52.042;5.648;2023-05-07T12:52:34;10.48;;;8.15;;
25073;SDS011;13066;52.042;5.648;2023-05-07T12:55:07;9.07;;;6.85;;
25073;SDS011;13066;52.042;5.648;2023-05-07T12:57:39;8.43;;;6.60;;
25073;SDS011;13066;52.042;5.648;2023-05-07T13:00:08;12.13;;;7.15;;
25073;SDS011;13066;52.042;5.648;2023-05-07T13:02:37;10.95;;;7.63;;
25073;SDS011;13066;52.042;5.648;2023-05-07T13:05:06;9.77;;;6.30;;
25073;SDS011;13066;52.042;5.648;2023-05-07T13:07:35;10.50;;;6.82;;
25073;SDS011;13066;52.042;5.648;2023-05-07T13:10:04;9.50;;;7.00;;
25073;SDS011;13066;52.042;5.648;2023-05-07T13:12:34;9.30;;;7.20;;
25073;SDS011;13066;52.042;5.648;2023-05-07T13:15:03;11.05;;;7.32;;
25073;SDS011;13066;52.042;5.648;2023-05-07T13:17:32;10.98;;;8.05;;
25073;SDS011;13066;52.042;5.648;2023-05-07T13:20:00;13.88;;;8.85;;
25073;SDS011;13066;52.042;5.648;2023-05-07T13:22:28;13.30;;;7.43;;
25073;SDS011;13066;52.042;5.648;2023-05-07T13:24:56;8.98;;;7.07;;
25073;SDS011;13066;52.042;5.648;2023-05-07T13:27:24;11.10;;;7.53;;
25073;SDS011;13066;52.042;5.648;2023-05-07T13:29:53;12.45;;;7.38;;
25073;SDS011;13066;52.042;5.648;2023-05-07T13:32:21;12.57;;;8.27;;
25073;SDS011;13066;52.042;5.648;2023-05-07T13:34:49;12.10;;;9.05;;
25073;SDS011;13066;52.042;5.648;2023-05-07T13:37:17;17.40;;;9.00;;
25073;SDS011;13066;52.042;5.648;2023-05-07T13:39:45;13.60;;;8.75;;
25073;SDS011;13066;52.042;5.648;2023-05-07T13:42:13;16.00;;;9.05;;
25073;SDS011;13066;52.042;5.648;2023-05-07T13:44:41;14.20;;;8.90;;
25073;SDS011;13066;52.042;5.648;2023-05-07T13:47:11;10.93;;;9.02;;
25073;SDS011;13066;52.042;5.648;2023-05-07T13:49:39;15.70;;;10.73;;
25073;SDS011;13066;52.042;5.648;2023-05-07T13:52:07;16.27;;;9.90;;
25073;SDS011;13066;52.042;5.648;2023-05-07T13:54:35;12.50;;;9.27;;
25073;SDS011;13066;52.042;5.648;2023-05-07T13:57:03;15.40;;;10.40;;
25073;SDS011;13066;52.042;5.648;2023-05-07T13:59:31;15.52;;;11.18;;
25073;SDS011;13066;52.042;5.648;2023-05-07T14:01:59;13.57;;;10.00;;
25073;SDS011;13066;52.042;5.648;2023-05-07T14:04:30;14.40;;;9.70;;
25073;SDS011;13066;52.042;5.648;2023-05-07T14:06:57;15.43;;;10.30;;
25073;SDS011;13066;52.042;5.648;2023-05-07T14:09:26;18.42;;;10.65;;
25073;SDS011;13066;52.042;5.648;2023-05-07T14:11:54;14.30;;;11.10;;
25073;SDS011;13066;52.042;5.648;2023-05-07T14:14:22;16.00;;;11.07;;
25073;SDS011;13066;52.042;5.648;2023-05-07T14:16:49;16.63;;;10.30;;
25073;SDS011;13066;52.042;5.648;2023-05-07T14:19:17;13.73;;;10.75;;
25073;SDS011;13066;52.042;5.648;2023-05-07T14:21:47;14.25;;;10.48;;
25073;SDS011;13066;52.042;5.648;2023-05-07T14:24:15;15.90;;;10.95;;
25073;SDS011;13066;52.042;5.648;2023-05-07T14:27:03;15.90;;;11.10;;
25073;SDS011;13066;52.042;5.648;2023-05-07T14:29:31;14.98;;;11.55;;
25073;SDS011;13066;52.042;5.648;2023-05-07T14:31:59;17.95;;;11.70;;
25073;SDS011;13066;52.042;5.648;2023-05-07T14:34:26;16.85;;;11.23;;
25073;SDS011;13066;52.042;5.648;2023-05-07T14:36:56;16.52;;;11.68;;
25073;SDS011;13066;52.042;5.648;2023-05-07T14:39:23;13.20;;;10.60;;
25073;SDS011;13066;52.042;5.648;2023-05-07T14:41:51;14.02;;;10.77;;
25073;SDS011;13066;52.042;5.648;2023-05-07T14:44:20;15.85;;;12.07;;
25073;SDS011;13066;52.042;5.648;2023-05-07T14:46:49;19.75;;;12.77;;
25073;SDS011;13066;52.042;5.648;2023-05-07T14:49:18;20.08;;;12.02;;
25073;SDS011;13066;52.042;5.648;2023-05-07T14:51:46;15.52;;;12.40;;
25073;SDS011;13066;52.042;5.648;2023-05-07T14:54:16;16.35;;;11.77;;
25073;SDS011;13066;52.042;5.648;2023-05-07T14:56:43;17.85;;;11.55;;
25073;SDS011;13066;52.042;5.648;2023-05-07T14:59:12;17.08;;;12.00;;
25073;SDS011;13066;52.042;5.648;2023-05-07T15:01:39;17.70;;;11.80;;